Time;durP1;ratioP1;P1;durP2;ratioP2;P2;SDS_P1;SDS_P2;PMS_P1;PMS_P2;Temp;Humidity;BMP_temperature;BMP_pressure;BME280_temperature;BME280_humidity;BME280_pressure;Samples;Min_cycle;Max_cycle;Signal;HPM_P1;HPM_P2
2023/06/16 00:02:23;;;;;;;14.15;10.73;;;18.20;52.60;;;;;;4984063;28;117965;-79
2023/06/16 00:05:01;;;;;;;17.55;13.90;;;18.10;52.80;;;;;;4985312;28;114667;-80
2023/06/16 00:07:33;;;;;;;15.30;11.55;;;18.00;53.10;;;;;;4985201;28;114258;-79
2023/06/16 00:10:00;;;;;;;13.10;10.73;;;17.80;53.50;;;;;;4984600;28;114400;-80
2023/06/16 00:12:27;;;;;;;16.50;13.15;;;17.90;53.60;;;;;;4983710;28;115100;-80
2023/06/16 00:14:55;;;;;;;13.60;11.25;;;17.90;53.60;;;;;;4993236;28;115874;-79
2023/06/16 00:17:23;;;;;;;15.48;13.65;;;17.90;53.30;;;;;;4964907;28;114573;-80
2023/06/16 00:19:51;;;;;;;17.38;14.93;;;18.00;53.30;;;;;;4968391;28;114441;-80
2023/06/16 00:22:18;;;;;;;17.42;14.18;;;18.10;53.10;;;;;;4970189;28;114996;-80
2023/06/16 00:24:46;;;;;;;13.43;11.98;;;18.00;53.10;;;;;;4964915;28;115869;-80
2023/06/16 00:27:13;;;;;;;15.75;13.00;;;18.00;53.20;;;;;;4965353;28;114500;-79
2023/06/16 00:29:40;;;;;;;13.63;12.05;;;18.00;53.30;;;;;;4965557;28;114316;-80
2023/06/16 00:32:08;;;;;;;14.43;12.63;;;18.00;53.20;;;;;;4963033;28;115140;-80
2023/06/16 00:34:35;;;;;;;13.30;11.50;;;18.10;53.20;;;;;;4965100;28;114725;-79
2023/06/16 00:37:05;;;;;;;15.15;12.15;;;18.10;53.20;;;;;;4965496;28;114132;-79
2023/06/16 00:39:34;;;;;;;12.57;11.23;;;18.20;53.00;;;;;;4965948;28;114595;-79
2023/06/16 00:42:05;;;;;;;16.70;12.57;;;18.20;52.90;;;;;;4964867;28;116216;-79
2023/06/16 00:44:33;;;;;;;12.05;10.80;;;18.20;52.80;;;;;;4979618;28;116003;-79
2023/06/16 00:47:00;;;;;;;12.25;10.20;;;18.20;52.70;;;;;;4966422;28;114610;-79
2023/06/16 00:49:28;;;;;;;15.77;13.70;;;18.20;52.70;;;;;;4973156;28;115002;-80
2023/06/16 00:51:55;;;;;;;14.20;12.70;;;18.30;52.50;;;;;;4988049;28;116308;-80
2023/06/16 00:54:23;;;;;;;15.25;13.65;;;18.30;52.50;;;;;;4963909;28;114596;-79
2023/06/16 00:56:51;;;;;;;15.25;12.50;;;18.20;52.50;;;;;;4963745;28;114357;-80
2023/06/16 00:59:22;;;;;;;18.13;15.20;;;18.20;52.50;;;;;;4980877;28;114310;-80
2023/06/16 01:01:50;;;;;;;12.55;11.05;;;18.10;52.50;;;;;;4979644;28;114952;-80
2023/06/16 01:04:17;;;;;;;16.65;13.77;;;18.00;52.80;;;;;;4979972;28;114806;-80
2023/06/16 01:06:49;;;;;;;13.93;11.82;;;18.00;52.80;;;;;;4964157;28;114585;-80
2023/06/16 01:09:29;;;;;;;12.45;10.95;;;18.00;53.00;;;;;;4979564;28;114567;-80
2023/06/16 01:12:05;;;;;;;13.57;11.82;;;18.00;52.90;;;;;;4962206;28;115590;-80
2023/06/16 01:14:39;;;;;;;14.07;11.60;;;18.00;52.90;;;;;;4962907;28;115234;-80
2023/06/16 01:17:06;;;;;;;;;;;18.10;52.80;;;;;;4963747;28;114314;-80
2023/06/16 01:19:37;;;;;;;13.57;11.70;;;18.00;52.40;;;;;;4981142;28;114366;-80
2023/06/16 01:22:12;;;;;;;13.20;11.60;;;18.00;52.70;;;;;;4990142;28;114919;-80
2023/06/16 01:24:42;;;;;;;11.95;10.60;;;18.00;52.60;;;;;;4966499;28;118169;-80
2023/06/16 01:27:10;;;;;;;11.45;10.02;;;18.00;52.60;;;;;;4983430;28;114548;-79
2023/06/16 01:29:37;;;;;;;12.68;10.82;;;18.00;52.60;;;;;;4967382;28;114554;-79
2023/06/16 01:32:05;;;;;;;12.52;10.50;;;18.00;52.70;;;;;;4980072;28;115047;-80
2023/06/16 01:34:33;;;;;;;11.88;10.63;;;18.10;52.50;;;;;;4983007;28;115035;-81
2023/06/16 01:37:01;;;;;;;13.88;12.35;;;18.10;52.50;;;;;;4951273;28;114404;-81
2023/06/16 01:39:28;;;;;;;15.20;11.38;;;18.10;52.10;;;;;;4983980;28;114521;-80
2023/06/16 01:41:56;;;;;;;13.02;10.32;;;18.00;52.20;;;;;;4983046;28;114900;-81
2023/06/16 01:44:23;;;;;;;15.52;11.73;;;17.90;52.20;;;;;;4966632;28;114523;-80
2023/06/16 01:46:50;;;;;;;13.15;11.65;;;17.80;52.30;;;;;;4966731;28;114300;-81
2023/06/16 01:49:18;;;;;;;13.57;11.43;;;17.70;52.90;;;;;;4983996;28;114446;-80
2023/06/16 01:51:45;;;;;;;14.65;11.82;;;17.70;52.80;;;;;;4983232;28;114932;-80
2023/06/16 01:54:12;;;;;;;13.48;10.85;;;17.70;52.80;;;;;;4982564;28;114372;-81
2023/06/16 01:56:39;;;;;;;14.32;12.75;;;17.80;52.70;;;;;;4966798;28;114110;-81
2023/06/16 01:59:06;;;;;;;13.38;10.60;;;17.80;52.20;;;;;;4967245;28;114341;-80
2023/06/16 02:01:40;;;;;;;11.68;9.75;;;17.60;53.10;;;;;;4966818;28;117107;-81
2023/06/16 02:04:13;;;;;;;17.30;12.73;;;17.60;53.40;;;;;;4968241;28;117190;-81
2023/06/16 02:06:58;;;;;;;13.35;10.68;;;17.70;53.10;;;;;;4986655;28;114294;-80
2023/06/16 02:09:25;;;;;;;12.57;10.55;;;17.70;53.00;;;;;;4986433;28;114414;-80
2023/06/16 02:11:53;;;;;;;14.30;12.38;;;17.80;53.00;;;;;;4985535;28;114592;-80
2023/06/16 02:14:21;;;;;;;14.75;12.10;;;17.80;52.70;;;;;;5001921;28;115801;-80
2023/06/16 02:16:50;;;;;;;16.95;11.73;;;17.80;52.50;;;;;;5002709;28;114310;-79
2023/06/16 02:19:18;;;;;;;14.30;11.43;;;17.80;52.60;;;;;;4986735;28;114373;-80
2023/06/16 02:21:45;;;;;;;13.68;12.02;;;17.80;52.30;;;;;;4985625;28;115195;-80
2023/06/16 02:24:13;;;;;;;12.65;11.23;;;17.80;52.60;;;;;;4987035;28;115264;-80
2023/06/16 02:26:42;;;;;;;15.27;11.90;;;17.80;52.60;;;;;;4986153;28;114214;-80
2023/06/16 02:29:09;;;;;;;11.88;9.45;;;17.80;52.40;;;;;;4987053;28;114593;-79
2023/06/16 02:31:36;;;;;;;12.82;10.75;;;17.80;52.50;;;;;;4985339;28;114955;-80
2023/06/16 02:34:03;;;;;;;13.80;12.02;;;17.90;52.30;;;;;;4984292;28;114793;-80
2023/06/16 02:36:33;;;;;;;12.10;9.57;;;17.90;52.00;;;;;;4985295;28;114249;-79
2023/06/16 02:39:01;;;;;;;12.90;11.60;;;17.80;52.40;;;;;;5002340;28;114297;-79
2023/06/16 02:41:29;;;;;;;12.80;11.45;;;17.90;52.10;;;;;;4985392;28;114989;-80
2023/06/16 02:43:57;;;;;;;12.60;10.23;;;17.90;51.80;;;;;;4985619;28;114687;-79
2023/06/16 02:46:24;;;;;;;15.02;11.88;;;17.90;52.30;;;;;;4987141;28;114455;-81
2023/06/16 02:48:52;;;;;;;13.90;12.10;;;17.90;51.90;;;;;;4985921;28;114356;-81
2023/06/16 02:51:19;;;;;;;11.93;10.40;;;17.90;51.60;;;;;;4986066;28;114894;-83
2023/06/16 02:53:49;;;;;;;14.20;10.77;;;17.80;52.00;;;;;;4985604;28;114766;-81
2023/06/16 02:56:17;;;;;;;12.77;10.52;;;17.80;51.90;;;;;;4985870;28;114578;-81
2023/06/16 02:58:45;;;;;;;12.57;9.55;;;17.80;52.10;;;;;;4985424;28;114556;-82
2023/06/16 03:01:12;;;;;;;11.80;9.50;;;17.80;52.40;;;;;;4967980;28;118012;-81
2023/06/16 03:04:03;;;;;;;11.48;9.23;;;17.80;52.20;;;;;;4998225;28;114605;-80
2023/06/16 03:06:49;;;;;;;12.82;11.35;;;17.80;52.50;;;;;;4985703;28;114335;-80
2023/06/16 03:09:26;;;;;;;11.52;10.32;;;17.80;51.60;;;;;;4968438;28;114308;-81
2023/06/16 03:11:55;;;;;;;13.10;10.07;;;17.90;52.00;;;;;;4951955;28;117742;-80
2023/06/16 03:14:25;;;;;;;11.73;9.02;;;17.90;52.00;;;;;;4984735;28;117752;-80
2023/06/16 03:16:55;;;;;;;13.77;11.48;;;17.90;52.20;;;;;;4968310;28;114481;-80
2023/06/16 03:19:24;;;;;;;10.98;9.32;;;18.00;51.50;;;;;;4968647;28;114752;-81
2023/06/16 03:21:52;;;;;;;13.13;10.40;;;18.20;51.70;;;;;;4967834;28;114911;-81
2023/06/16 03:24:29;;;;;;;10.75;9.25;;;18.30;51.10;;;;;;4983676;28;118563;-80
2023/06/16 03:26:56;;;;;;;12.23;9.88;;;18.70;50.60;;;;;;5001217;28;114217;-80
2023/06/16 03:29:39;;;;;;;13.43;10.52;;;18.80;50.30;;;;;;4967721;28;114446;-80
2023/06/16 03:32:07;;;;;;;12.57;10.48;;;19.00;49.80;;;;;;4984023;28;114908;-80
2023/06/16 03:34:35;;;;;;;12.65;10.13;;;19.10;49.30;;;;;;4985260;28;114682;-81
2023/06/16 03:37:03;;;;;;;12.77;11.38;;;19.20;49.00;;;;;;4984771;28;114400;-81
2023/06/16 03:39:36;;;;;;;11.63;10.43;;;19.40;48.60;;;;;;4968245;28;114280;-81
2023/06/16 03:42:04;;;;;;;16.67;11.13;;;19.40;48.40;;;;;;4983577;28;115111;-80
2023/06/16 03:44:31;;;;;;;15.45;10.55;;;19.40;48.20;;;;;;4977104;28;114730;-80
2023/06/16 03:47:06;;;;;;;12.30;10.98;;;19.40;48.10;;;;;;4963234;28;114276;-80
2023/06/16 03:49:34;;;;;;;16.40;12.27;;;19.50;47.80;;;;;;4964199;28;114423;-80
2023/06/16 03:52:05;;;;;;;14.60;12.20;;;19.60;47.50;;;;;;4964621;28;114931;-80
2023/06/16 03:54:36;;;;;;;13.45;10.57;;;19.50;47.50;;;;;;4963237;28;114845;-79
2023/06/16 03:57:05;;;;;;;13.32;11.25;;;19.50;47.70;;;;;;4965734;28;117871;-80
2023/06/16 03:59:33;;;;;;;13.18;11.77;;;19.60;47.50;;;;;;4964741;28;114412;-81
2023/06/16 04:02:06;;;;;;;22.10;13.88;;;19.50;47.50;;;;;;4963719;28;115177;-80
2023/06/16 04:04:35;;;;;;;14.77;11.45;;;19.50;47.50;;;;;;4947160;28;116732;-80
2023/06/16 04:07:05;;;;;;;16.33;11.63;;;19.40;47.70;;;;;;4948008;28;114352;-82
2023/06/16 04:09:32;;;;;;;17.88;11.73;;;19.30;47.90;;;;;;4965432;28;115300;-80
2023/06/16 04:12:00;;;;;;;14.23;10.60;;;19.40;47.80;;;;;;4947213;28;117524;-80
2023/06/16 04:14:28;;;;;;;17.85;11.95;;;19.50;47.80;;;;;;4946979;28;116370;-80
2023/06/16 04:16:55;;;;;;;16.92;11.32;;;19.60;47.70;;;;;;4963474;28;114504;-80
2023/06/16 04:19:26;;;;;;;15.60;12.23;;;19.70;47.50;;;;;;4963994;28;115350;-81
2023/06/16 04:21:54;;;;;;;16.83;12.95;;;19.70;47.30;;;;;;4946314;28;116496;-81
2023/06/16 04:24:25;;;;;;;17.90;11.68;;;19.70;47.20;;;;;;4963800;28;114674;-81
2023/06/16 04:26:58;;;;;;;21.88;13.80;;;19.60;47.50;;;;;;4981022;28;114381;-80
2023/06/16 04:29:27;;;;;;;24.20;15.80;;;19.60;47.60;;;;;;4963860;28;115642;-80
2023/06/16 04:31:59;;;;;;;24.55;15.77;;;19.50;47.70;;;;;;4947749;28;117587;-80
2023/06/16 04:34:31;;;;;;;23.73;14.60;;;19.50;47.80;;;;;;4964006;28;114604;-80
2023/06/16 04:37:01;;;;;;;14.25;10.95;;;19.60;47.40;;;;;;4963299;28;114637;-80
2023/06/16 04:39:32;;;;;;;18.17;13.48;;;19.50;47.60;;;;;;4965450;28;114151;-79
2023/06/16 04:42:04;;;;;;;16.67;12.02;;;19.40;47.90;;;;;;4965978;28;115666;-80
2023/06/16 04:44:33;;;;;;;18.60;13.98;;;19.30;48.00;;;;;;4963473;28;115939;-80
2023/06/16 04:47:01;;;;;;;15.48;11.23;;;19.30;48.00;;;;;;4980555;28;114424;-81
2023/06/16 04:49:30;;;;;;;18.20;13.98;;;19.40;48.20;;;;;;4947616;28;114591;-80
2023/06/16 04:51:59;;;;;;;17.05;13.70;;;19.50;48.00;;;;;;4945845;28;118107;-80
2023/06/16 04:54:27;;;;;;;16.92;12.57;;;19.60;47.90;;;;;;4961535;28;116879;-80
2023/06/16 04:56:54;;;;;;;19.25;13.57;;;19.70;47.90;;;;;;4963842;28;114439;-80
2023/06/16 04:59:21;;;;;;;22.52;14.25;;;19.80;47.90;;;;;;4963053;28;114698;-80
2023/06/16 05:01:50;;;;;;;17.98;13.30;;;19.80;47.90;;;;;;4961755;28;116696;-80
2023/06/16 05:04:18;;;;;;;18.23;14.15;;;19.90;47.80;;;;;;4962383;28;115189;-80
2023/06/16 05:06:46;;;;;;;21.40;14.45;;;20.00;47.80;;;;;;4963077;28;114468;-80
2023/06/16 05:09:14;;;;;;;21.50;15.30;;;20.10;47.50;;;;;;4963505;28;114351;-80
2023/06/16 05:11:42;;;;;;;24.90;15.80;;;20.20;47.40;;;;;;4963137;28;116083;-81
2023/06/16 05:14:09;;;;;;;19.38;12.90;;;20.20;47.60;;;;;;4961297;28;115201;-81
2023/06/16 05:16:41;;;;;;;21.48;15.73;;;20.20;47.50;;;;;;4962433;28;118075;-80
2023/06/16 05:19:09;;;;;;;23.90;14.45;;;20.30;47.70;;;;;;4945735;28;114138;-80
2023/06/16 05:21:44;;;;;;;18.88;14.07;;;20.30;47.70;;;;;;4959613;28;115363;-81
2023/06/16 05:24:11;;;;;;;21.60;15.68;;;20.40;47.60;;;;;;4965601;28;116814;-81
2023/06/16 05:26:40;;;;;;;20.48;15.07;;;20.50;47.50;;;;;;4928525;28;114518;-80
2023/06/16 05:29:09;;;;;;;18.92;14.73;;;20.60;47.70;;;;;;4962242;28;114491;-80
2023/06/16 05:31:37;;;;;;;18.30;13.32;;;20.80;47.40;;;;;;4960044;28;116310;-81
2023/06/16 05:34:06;;;;;;;20.85;15.70;;;20.80;47.20;;;;;;4945534;28;118083;-80
2023/06/16 05:36:35;;;;;;;19.20;14.48;;;20.90;47.00;;;;;;4963446;28;114256;-80
2023/06/16 05:39:06;;;;;;;17.88;14.07;;;20.90;47.00;;;;;;4965760;28;114444;-81
2023/06/16 05:41:34;;;;;;;16.85;13.60;;;21.00;46.90;;;;;;4945946;28;116284;-81
2023/06/16 05:44:02;;;;;;;18.17;13.63;;;21.10;47.10;;;;;;4962281;28;116141;-80
2023/06/16 05:46:29;;;;;;;20.65;13.00;;;21.30;47.00;;;;;;4963418;28;116869;-80
2023/06/16 05:48:57;;;;;;;18.38;11.88;;;21.40;47.10;;;;;;4962947;28;114520;-80
2023/06/16 05:51:25;;;;;;;16.10;12.00;;;21.50;46.60;;;;;;4962341;28;115121;-80
2023/06/16 05:53:53;;;;;;;17.00;12.32;;;21.60;45.90;;;;;;4945815;28;117033;-80
2023/06/16 05:56:23;;;;;;;14.27;11.88;;;21.70;45.70;;;;;;4962308;28;114500;-81
2023/06/16 05:58:52;;;;;;;16.90;12.50;;;21.80;45.50;;;;;;4963222;28;114549;-80
2023/06/16 06:01:19;;;;;;;17.52;12.60;;;21.80;45.30;;;;;;4962312;28;114901;-80
2023/06/16 06:03:47;;;;;;;15.68;12.20;;;21.90;45.20;;;;;;4962004;28;114806;-80
2023/06/16 06:06:18;;;;;;;16.80;13.15;;;22.00;45.00;;;;;;4963013;28;114388;-81
2023/06/16 06:08:46;;;;;;;17.83;13.10;;;22.20;44.60;;;;;;4963000;28;114356;-80
2023/06/16 06:11:16;;;;;;;15.57;12.98;;;22.30;44.50;;;;;;4965094;28;115004;-79
2023/06/16 06:13:43;;;;;;;16.00;13.35;;;22.40;44.00;;;;;;4953220;28;118187;-80
2023/06/16 06:16:11;;;;;;;18.45;13.00;;;22.40;43.60;;;;;;4963105;28;114206;-82
2023/06/16 06:18:43;;;;;;;16.55;12.95;;;22.40;43.60;;;;;;4964589;28;114288;-80
2023/06/16 06:21:10;;;;;;;14.82;11.68;;;22.60;43.80;;;;;;4979733;28;115156;-79
2023/06/16 06:23:38;;;;;;;14.02;10.80;;;22.70;43.30;;;;;;4932841;28;117157;-82
2023/06/16 06:26:05;;;;;;;15.50;12.43;;;22.80;43.40;;;;;;4966203;28;114465;-80
2023/06/16 06:28:33;;;;;;;14.45;9.35;;;22.90;42.50;;;;;;4965190;28;114826;-82
2023/06/16 06:31:01;;;;;;;12.82;9.05;;;23.00;42.30;;;;;;4948490;28;117474;-82
2023/06/16 06:33:31;;;;;;;13.68;9.68;;;23.00;41.70;;;;;;4964993;28;114993;-82
2023/06/16 06:35:58;;;;;;;13.40;9.45;;;23.10;41.70;;;;;;4966992;28;114113;-82
2023/06/16 06:38:26;;;;;;;14.10;10.65;;;23.20;41.40;;;;;;4986040;28;114464;-82
2023/06/16 06:40:54;;;;;;;14.95;9.43;;;23.30;41.70;;;;;;4965393;28;115355;-82
2023/06/16 06:43:21;;;;;;;16.00;9.35;;;23.30;41.40;;;;;;4965242;28;114823;-82
2023/06/16 06:45:53;;;;;;;11.10;8.30;;;23.50;41.10;;;;;;4981516;28;114691;-82
2023/06/16 06:48:21;;;;;;;10.95;9.00;;;23.50;41.20;;;;;;4966105;28;114283;-82
2023/06/16 06:50:54;;;;;;;24.13;8.23;;;23.60;40.40;;;;;;4979951;28;116058;-82
2023/06/16 06:53:26;;;;;;;12.88;8.02;;;23.60;40.80;;;;;;4980731;28;116265;-81
2023/06/16 06:55:56;;;;;;;13.23;7.47;;;23.60;40.70;;;;;;4966566;28;114216;-80
2023/06/16 06:58:23;;;;;;;8.95;6.90;;;23.70;40.40;;;;;;4965553;28;114362;-83
2023/06/16 07:00:51;;;;;;;11.23;7.55;;;23.80;40.40;;;;;;4964452;28;117974;-80
2023/06/16 07:03:19;;;;;;;10.40;7.40;;;23.80;40.30;;;;;;4965305;28;115052;-81
2023/06/16 07:05:47;;;;;;;11.10;7.57;;;23.80;40.30;;;;;;4967065;28;114208;-82
2023/06/16 07:08:15;;;;;;;9.75;7.30;;;23.80;40.50;;;;;;4981449;28;114401;-81
2023/06/16 07:10:42;;;;;;;8.90;7.43;;;23.90;40.50;;;;;;4965177;28;114904;-81
2023/06/16 07:13:09;;;;;;;13.60;8.30;;;23.80;40.50;;;;;;4980327;28;115917;-82
2023/06/16 07:15:36;;;;;;;9.60;7.40;;;23.80;40.70;;;;;;4985252;28;114739;-81
2023/06/16 07:18:07;;;;;;;13.93;8.38;;;23.90;40.50;;;;;;4986057;28;116188;-81
2023/06/16 07:20:35;;;;;;;13.48;7.63;;;23.80;40.30;;;;;;4999847;28;116242;-81
2023/06/16 07:23:03;;;;;;;14.52;7.72;;;23.70;40.60;;;;;;4984332;28;115057;-81
2023/06/16 07:25:32;;;;;;;9.32;7.22;;;23.70;40.90;;;;;;4986085;28;118666;-82
2023/06/16 07:28:00;;;;;;;10.35;7.38;;;23.70;40.40;;;;;;4986973;28;114415;-81
2023/06/16 07:30:27;;;;;;;10.80;8.02;;;23.60;41.00;;;;;;4983675;28;114886;-82
2023/06/16 07:32:54;;;;;;;10.77;7.55;;;23.60;40.40;;;;;;4997653;28;117490;-81
2023/06/16 07:35:22;;;;;;;9.93;7.40;;;23.40;40.90;;;;;;4981320;28;114158;-81
2023/06/16 07:37:50;;;;;;;8.18;6.72;;;23.30;41.00;;;;;;4966536;28;114135;-81
2023/06/16 07:40:17;;;;;;;11.05;6.85;;;23.30;41.50;;;;;;4980150;28;117706;-80
2023/06/16 07:42:45;;;;;;;11.07;7.18;;;23.40;41.10;;;;;;4947813;28;117440;-81
2023/06/16 07:45:13;;;;;;;8.57;6.70;;;23.40;41.20;;;;;;4965469;28;114595;-80
2023/06/16 07:47:40;;;;;;;9.38;6.80;;;23.40;41.40;;;;;;4981823;28;114190;-81
2023/06/16 07:50:08;;;;;;;14.70;7.35;;;23.50;41.40;;;;;;4980296;28;115051;-82
2023/06/16 07:52:35;;;;;;;11.45;7.00;;;23.50;41.20;;;;;;4966038;28;114375;-82
2023/06/16 07:55:04;;;;;;;8.85;6.47;;;23.50;40.60;;;;;;4981233;28;114688;-82
2023/06/16 07:57:38;;;;;;;9.40;6.30;;;23.50;39.90;;;;;;4964753;28;114175;-82
2023/06/16 08:00:10;;;;;;;8.73;6.35;;;23.50;39.90;;;;;;4965076;28;114910;-81
2023/06/16 08:02:41;;;;;;;8.52;6.38;;;23.60;40.20;;;;;;4964298;28;114808;-81
2023/06/16 08:05:10;;;;;;;13.77;7.47;;;23.70;40.10;;;;;;4964713;28;117338;-80
2023/06/16 08:07:37;;;;;;;10.20;6.68;;;23.70;40.30;;;;;;4966350;28;114127;-80
2023/06/16 08:10:05;;;;;;;10.88;7.60;;;23.70;39.80;;;;;;4965139;28;116332;-81
2023/06/16 08:12:32;;;;;;;11.10;6.80;;;23.70;39.40;;;;;;4962320;28;114694;-80
2023/06/16 08:14:59;;;;;;;10.68;6.70;;;23.60;39.60;;;;;;4964127;28;114598;-82
2023/06/16 08:17:27;;;;;;;12.10;7.20;;;23.60;39.60;;;;;;4964242;28;114284;-81
2023/06/16 08:19:54;;;;;;;12.32;7.60;;;23.60;40.00;;;;;;4964299;28;115034;-81
2023/06/16 08:22:21;;;;;;;9.73;7.40;;;23.70;40.20;;;;;;4980297;28;114755;-81
2023/06/16 08:24:49;;;;;;;11.65;7.43;;;23.80;40.50;;;;;;4980010;28;114259;-81
2023/06/16 08:27:17;;;;;;;12.23;7.20;;;23.80;40.10;;;;;;4964127;28;114555;-81
2023/06/16 08:29:44;;;;;;;8.43;6.90;;;23.80;40.10;;;;;;4964467;28;115093;-80
2023/06/16 08:32:12;;;;;;;10.20;5.93;;;23.70;40.00;;;;;;4964613;28;115207;-80
2023/06/16 08:34:39;;;;;;;9.60;6.30;;;23.70;40.30;;;;;;4964998;28;114626;-81
2023/06/16 08:37:07;;;;;;;8.80;6.75;;;23.80;39.90;;;;;;4968084;28;116360;-81
2023/06/16 08:39:54;;;;;;;11.30;7.28;;;23.80;38.90;;;;;;4996846;28;115033;-81
2023/06/16 08:42:23;;;;;;;9.52;6.15;;;23.90;38.90;;;;;;4983937;28;114621;-82
2023/06/16 08:44:52;;;;;;;10.77;6.28;;;23.90;39.70;;;;;;5001534;28;114758;-81
2023/06/16 08:47:21;;;;;;;12.15;7.13;;;23.90;40.00;;;;;;4985131;28;114238;-81
2023/06/16 08:49:52;;;;;;;8.32;6.43;;;24.00;39.80;;;;;;4998796;28;114872;-81
2023/06/16 08:52:20;;;;;;;9.80;6.65;;;24.10;38.50;;;;;;4971896;28;115429;-82
2023/06/16 08:55:10;;;;;;;9.82;6.50;;;24.10;38.30;;;;;;4980890;28;114770;-81
2023/06/16 08:57:43;;;;;;;10.23;6.18;;;24.20;38.50;;;;;;5000570;28;114215;-82
2023/06/16 09:00:11;;;;;;;10.32;6.32;;;24.10;38.40;;;;;;4983287;28;117268;-82
2023/06/16 09:02:38;;;;;;;12.10;6.35;;;24.20;38.60;;;;;;4966190;28;115304;-81
2023/06/16 09:05:09;;;;;;;11.85;6.28;;;24.30;38.50;;;;;;4999033;28;114703;-81
2023/06/16 09:07:41;;;;;;;10.13;6.63;;;24.20;38.90;;;;;;4983498;28;115087;-81
2023/06/16 09:10:09;;;;;;;10.18;6.10;;;24.20;38.10;;;;;;4982236;28;114972;-81
2023/06/16 09:12:36;;;;;;;13.02;6.40;;;24.20;38.50;;;;;;4999379;28;115336;-81
2023/06/16 09:15:08;;;;;;;10.93;6.85;;;24.20;38.10;;;;;;4983278;28;114648;-81
2023/06/16 09:17:39;;;;;;;11.30;6.28;;;24.30;37.90;;;;;;4999226;28;114464;-80
2023/06/16 09:20:14;;;;;;;8.43;5.75;;;24.30;38.10;;;;;;4998784;28;114868;-80
2023/06/16 09:22:41;;;;;;;8.57;6.22;;;24.20;37.80;;;;;;4988480;28;117918;-81
2023/06/16 09:25:12;;;;;;;8.77;5.97;;;24.00;37.60;;;;;;4984452;28;114278;-82
2023/06/16 09:27:47;;;;;;;6.90;5.55;;;23.80;37.20;;;;;;4967462;28;114432;-82
2023/06/16 09:30:18;;;;;;;8.20;6.60;;;23.60;37.90;;;;;;4963962;28;114980;-82
2023/06/16 09:32:53;;;;;;;7.72;5.90;;;23.50;38.50;;;;;;4962749;28;114617;-81
2023/06/16 09:35:27;;;;;;;9.18;5.47;;;23.30;39.00;;;;;;4967614;28;114430;-82
2023/06/16 09:38:00;;;;;;;10.63;5.80;;;23.30;38.80;;;;;;4963123;28;114423;-80
2023/06/16 09:40:31;;;;;;;10.85;6.10;;;23.30;38.90;;;;;;4965025;28;115079;-81
2023/06/16 09:43:01;;;;;;;10.38;5.93;;;23.20;38.60;;;;;;4982239;28;114784;-82
2023/06/16 09:45:32;;;;;;;8.27;5.65;;;23.30;38.70;;;;;;5001552;28;114609;-80
2023/06/16 09:48:04;;;;;;;8.80;5.32;;;23.30;38.60;;;;;;4969896;28;114334;-81
2023/06/16 09:50:31;;;;;;;7.10;5.60;;;23.30;37.80;;;;;;4987741;28;114811;-81
2023/06/16 09:53:00;;;;;;;7.63;5.80;;;23.30;37.70;;;;;;4986616;28;115163;-81
2023/06/16 09:55:28;;;;;;;8.70;5.65;;;23.50;38.00;;;;;;4987042;28;114205;-82
2023/06/16 09:57:55;;;;;;;6.93;5.10;;;23.70;37.40;;;;;;4987116;28;114380;-81
2023/06/16 10:00:30;;;;;;;7.70;5.40;;;23.70;37.40;;;;;;4986822;28;115461;-81
2023/06/16 10:02:57;;;;;;;8.43;5.40;;;23.60;37.30;;;;;;4965672;28;114565;-83
2023/06/16 10:05:25;;;;;;;8.20;4.65;;;23.40;37.50;;;;;;4982747;28;114490;-82
2023/06/16 10:07:59;;;;;;;6.95;4.80;;;23.40;37.50;;;;;;4983176;28;114403;-82
2023/06/16 10:10:29;;;;;;;6.88;4.57;;;23.30;37.80;;;;;;4963523;28;115399;-82
2023/06/16 10:12:57;;;;;;;6.75;5.00;;;23.30;37.80;;;;;;4982324;28;114284;-81
2023/06/16 10:15:28;;;;;;;7.20;4.38;;;23.30;38.00;;;;;;4983523;28;114352;-82
2023/06/16 10:17:55;;;;;;;7.40;4.70;;;23.50;37.30;;;;;;4967169;28;114278;-81
2023/06/16 10:20:25;;;;;;;8.52;4.60;;;23.60;37.40;;;;;;4981897;28;115523;-83
2023/06/16 10:22:52;;;;;;;11.02;4.72;;;23.70;37.50;;;;;;4966253;28;114782;-81
2023/06/16 10:25:23;;;;;;;10.00;5.10;;;23.80;37.80;;;;;;4982136;28;114268;-81
2023/06/16 10:27:50;;;;;;;9.15;5.30;;;24.00;37.20;;;;;;4983028;28;114215;-81
2023/06/16 10:30:19;;;;;;;8.82;6.15;;;23.90;37.00;;;;;;4965287;28;114864;-82
2023/06/16 10:32:48;;;;;;;9.52;4.93;;;24.00;37.00;;;;;;4981570;28;114632;-82
2023/06/16 10:35:16;;;;;;;8.40;5.18;;;24.10;36.40;;;;;;4982924;28;114080;-80
2023/06/16 10:37:54;;;;;;;7.65;4.95;;;24.10;36.00;;;;;;4967870;28;114329;-81
2023/06/16 10:40:25;;;;;;;7.65;4.88;;;24.00;36.30;;;;;;4964352;28;115609;-83
2023/06/16 10:42:56;;;;;;;9.20;6.05;;;24.00;37.10;;;;;;4981485;28;114615;-81
2023/06/16 10:45:31;;;;;;;16.65;5.53;;;24.00;36.70;;;;;;4982546;28;114537;-81
2023/06/16 10:48:11;;;;;;;8.10;5.22;;;24.00;36.70;;;;;;4982028;28;114487;-83
2023/06/16 10:50:38;;;;;;;6.63;5.10;;;24.00;36.70;;;;;;4980497;28;115059;-81
2023/06/16 10:53:19;;;;;;;7.43;5.20;;;24.10;36.70;;;;;;4964050;28;114649;-82
2023/06/16 10:55:48;;;;;;;10.63;5.40;;;24.20;36.10;;;;;;4964542;28;114434;-82
2023/06/16 10:58:19;;;;;;;5.70;4.38;;;24.20;35.90;;;;;;4981523;28;114517;-81
2023/06/16 11:01:02;;;;;;;8.43;5.07;;;24.30;34.90;;;;;;4965191;28;114960;-80
2023/06/16 11:03:37;;;;;;;9.00;5.50;;;24.30;35.30;;;;;;4965971;28;114614;-80
2023/06/16 11:06:05;;;;;;;7.43;5.05;;;24.30;35.00;;;;;;4948685;28;114682;-81
2023/06/16 11:08:48;;;;;;;10.27;4.68;;;24.30;35.30;;;;;;4966567;28;114562;-81
2023/06/16 11:11:15;;;;;;;6.53;4.30;;;24.40;34.80;;;;;;4980329;28;114990;-82
2023/06/16 11:13:42;;;;;;;8.32;4.18;;;24.50;34.30;;;;;;5000839;28;116835;-82
2023/06/16 11:16:12;;;;;;;8.65;5.05;;;24.60;34.10;;;;;;4986140;28;114622;-82
2023/06/16 11:18:39;;;;;;;8.10;4.30;;;24.70;33.80;;;;;;4985064;28;114538;-81
2023/06/16 11:21:07;;;;;;;7.78;4.20;;;24.80;33.30;;;;;;4999714;28;115149;-83
2023/06/16 11:23:39;;;;;;;9.40;4.65;;;24.80;33.00;;;;;;4999826;28;114642;-82
2023/06/16 11:26:11;;;;;;;7.13;4.55;;;24.90;32.90;;;;;;4978222;28;117357;-82
2023/06/16 11:28:42;;;;;;;9.50;4.63;;;24.80;33.10;;;;;;4966034;28;114265;-82
2023/06/16 11:31:11;;;;;;;32.38;5.70;;;24.80;33.20;;;;;;4979563;28;115035;-80
2023/06/16 11:33:39;;;;;;;7.40;4.50;;;24.80;33.10;;;;;;4965202;28;118513;-81
2023/06/16 11:36:14;;;;;;;14.70;4.82;;;24.80;32.30;;;;;;4980688;28;114489;-81
2023/06/16 11:38:45;;;;;;;26.63;5.93;;;24.70;33.00;;;;;;4966123;28;114561;-82
2023/06/16 11:41:16;;;;;;;7.80;4.25;;;24.70;33.10;;;;;;4964213;28;115657;-82
2023/06/16 11:43:44;;;;;;;6.55;4.25;;;24.70;32.70;;;;;;4973492;28;116781;-82
2023/06/16 11:46:11;;;;;;;20.67;5.30;;;24.70;33.20;;;;;;4985172;28;114355;-84
2023/06/16 11:48:39;;;;;;;8.55;4.00;;;24.70;32.90;;;;;;4984420;28;114603;-82
2023/06/16 11:51:06;;;;;;;6.70;4.18;;;24.70;33.10;;;;;;4983575;28;115638;-82
2023/06/16 11:53:33;;;;;;;6.88;4.22;;;24.60;32.50;;;;;;4983364;28;114636;-81
2023/06/16 11:56:08;;;;;;;10.75;4.15;;;24.50;32.90;;;;;;4984012;28;114480;-80
2023/06/16 11:58:36;;;;;;;7.85;4.90;;;24.50;33.20;;;;;;5001116;28;114340;-81
2023/06/16 12:01:04;;;;;;;6.93;4.45;;;24.40;33.60;;;;;;5000223;28;114868;-81
2023/06/16 12:03:35;;;;;;;7.85;4.40;;;24.50;33.40;;;;;;4984834;28;114262;-81
2023/06/16 12:06:07;;;;;;;7.45;4.50;;;24.50;33.40;;;;;;4999944;28;114632;-82
2023/06/16 12:08:39;;;;;;;9.60;5.00;;;24.50;33.50;;;;;;5000463;28;114366;-80
2023/06/16 12:11:13;;;;;;;7.20;4.95;;;24.60;34.20;;;;;;4998809;28;114968;-81
2023/06/16 12:13:40;;;;;;;7.97;4.72;;;24.60;34.50;;;;;;4999179;28;114643;-81
2023/06/16 12:16:09;;;;;;;8.18;4.20;;;24.50;33.20;;;;;;4985313;28;114222;-81
2023/06/16 12:18:36;;;;;;;8.57;4.80;;;24.40;33.10;;;;;;5000882;28;114278;-81
2023/06/16 12:21:20;;;;;;;7.70;4.40;;;24.30;33.80;;;;;;4982777;28;115392;-80
2023/06/16 12:23:54;;;;;;;10.52;4.80;;;24.40;34.40;;;;;;4995136;28;115449;-82
2023/06/16 12:26:31;;;;;;;7.65;5.20;;;24.30;34.30;;;;;;4980622;28;114404;-81
2023/06/16 12:29:08;;;;;;;11.43;5.18;;;24.30;35.00;;;;;;4964576;28;114669;-81
2023/06/16 12:31:35;;;;;;;9.45;4.78;;;24.30;34.80;;;;;;4963397;28;117266;-81
2023/06/16 12:34:04;;;;;;;8.10;4.75;;;24.30;34.50;;;;;;4966144;28;114850;-81
2023/06/16 12:36:32;;;;;;;8.30;5.10;;;24.30;34.40;;;;;;4984158;28;114524;-82
2023/06/16 12:38:59;;;;;;;11.88;5.05;;;24.30;34.30;;;;;;4980008;28;114490;-82